createdAt,value
2023-05-10T00:00:04.257Z,0.00
2023-05-10T00:01:04.182Z,0.00
2023-05-10T00:02:04.271Z,0.00
2023-05-10T00:03:04.278Z,0.00
2023-05-10T00:04:04.237Z,0.00
2023-05-10T00:05:04.191Z,0.00
2023-05-10T00:06:04.177Z,0.00
2023-05-10T00:07:04.182Z,0.00
2023-05-10T00:08:04.179Z,0.00
2023-05-10T00:09:04.177Z,0.00
2023-05-10T00:10:04.177Z,0.00
2023-05-10T00:11:04.191Z,0.00
2023-05-10T00:12:04.178Z,0.00
2023-05-10T00:13:04.213Z,0.00
2023-05-10T00:14:04.179Z,0.00
2023-05-10T00:15:04.183Z,0.00
2023-05-10T00:16:04.238Z,0.00
2023-05-10T00:17:04.179Z,0.00
2023-05-10T00:18:04.311Z,0.00
2023-05-10T00:19:04.179Z,0.00
2023-05-10T00:20:04.177Z,0.00
2023-05-10T00:21:04.186Z,0.00
2023-05-10T00:22:04.221Z,0.00
2023-05-10T00:23:04.177Z,0.00
2023-05-10T00:24:04.188Z,0.00
2023-05-10T00:25:04.176Z,0.00
2023-05-10T00:26:04.192Z,0.00
2023-05-10T00:27:04.172Z,0.00
2023-05-10T00:28:04.172Z,0.00
2023-05-10T00:29:04.180Z,0.00
2023-05-10T00:30:04.173Z,0.00
2023-05-10T00:31:04.180Z,0.00
2023-05-10T00:32:04.272Z,0.00
2023-05-10T00:33:04.221Z,0.00
2023-05-10T00:34:04.224Z,0.00
2023-05-10T00:35:04.175Z,0.00
2023-05-10T00:36:04.177Z,0.00
2023-05-10T00:37:04.184Z,0.00
2023-05-10T00:38:04.181Z,0.00
2023-05-10T00:39:04.183Z,0.00
2023-05-10T00:40:04.167Z,0.00
2023-05-10T00:41:04.183Z,0.00
2023-05-10T00:42:04.170Z,0.00
2023-05-10T00:43:04.167Z,0.00
2023-05-10T00:44:04.184Z,0.00
2023-05-10T00:45:04.174Z,0.00
2023-05-10T00:46:04.227Z,0.00
2023-05-10T00:47:04.170Z,0.00
2023-05-10T00:48:04.208Z,0.00
2023-05-10T00:49:04.171Z,0.00
2023-05-10T00:50:04.189Z,0.00
2023-05-10T00:51:04.177Z,0.00
2023-05-10T00:52:04.177Z,0.00
2023-05-10T00:53:04.174Z,0.00
2023-05-10T00:54:04.167Z,0.00
2023-05-10T00:55:04.171Z,0.00
2023-05-10T00:56:04.171Z,0.00
2023-05-10T00:57:04.193Z,0.00
2023-05-10T00:58:04.162Z,0.00
2023-05-10T00:59:04.174Z,0.00
2023-05-10T01:00:04.160Z,0.00
2023-05-10T01:01:04.186Z,0.00
2023-05-10T01:02:04.198Z,0.00
2023-05-10T01:03:04.297Z,0.00
2023-05-10T01:04:04.177Z,0.00
2023-05-10T01:05:04.296Z,0.00
2023-05-10T01:06:04.188Z,0.00
2023-05-10T01:07:04.168Z,0.00
2023-05-10T01:08:04.161Z,0.00
2023-05-10T01:09:04.158Z,0.00
2023-05-10T01:10:04.163Z,0.00
2023-05-10T01:11:04.164Z,0.00
2023-05-10T01:12:04.254Z,0.00
2023-05-10T01:13:04.270Z,0.00
2023-05-10T01:14:04.154Z,0.00
2023-05-10T01:15:04.160Z,0.00
2023-05-10T01:16:04.288Z,0.00
2023-05-10T01:17:04.160Z,0.00
2023-05-10T01:18:04.220Z,0.00
2023-05-10T01:19:04.166Z,0.00
2023-05-10T01:20:04.163Z,0.00
2023-05-10T01:21:04.158Z,0.00
2023-05-10T01:22:04.190Z,0.00
2023-05-10T01:23:04.156Z,0.00
2023-05-10T01:24:04.154Z,0.00
2023-05-10T01:25:04.157Z,0.00
2023-05-10T01:26:04.154Z,0.00
2023-05-10T01:27:04.162Z,0.00
2023-05-10T01:28:04.150Z,0.00
2023-05-10T01:29:04.166Z,0.00
2023-05-10T01:30:14.673Z,0.00
2023-05-10T01:31:04.177Z,0.00
2023-05-10T01:32:04.174Z,0.00
2023-05-10T01:33:04.200Z,0.00
2023-05-10T01:34:04.150Z,0.00
2023-05-10T01:35:04.158Z,0.00
2023-05-10T01:36:04.154Z,0.00
2023-05-10T01:37:04.150Z,0.00
2023-05-10T01:38:04.172Z,0.00
2023-05-10T01:39:04.139Z,0.00
2023-05-10T01:40:04.141Z,0.00
2023-05-10T01:41:04.148Z,0.00
2023-05-10T01:42:04.141Z,0.00
2023-05-10T01:43:04.141Z,0.00
2023-05-10T01:44:04.139Z,0.00
2023-05-10T01:45:04.153Z,0.00
2023-05-10T01:46:04.143Z,0.00
2023-05-10T01:47:04.214Z,0.00
2023-05-10T01:48:04.159Z,0.00
2023-05-10T01:49:04.134Z,0.00
2023-05-10T01:50:04.146Z,0.00
2023-05-10T01:51:04.137Z,0.00
2023-05-10T01:52:04.136Z,0.00
2023-05-10T01:53:04.129Z,0.00
2023-05-10T01:54:04.167Z,0.00
2023-05-10T01:55:04.134Z,0.00
2023-05-10T01:56:04.130Z,0.00
2023-05-10T01:57:04.139Z,0.00
2023-05-10T01:58:04.140Z,0.00
2023-05-10T01:59:04.140Z,0.00
2023-05-10T02:00:04.144Z,0.00
2023-05-10T02:01:04.147Z,0.00
2023-05-10T02:02:04.140Z,0.00
2023-05-10T02:03:04.220Z,0.00
2023-05-10T02:04:04.205Z,0.00
2023-05-10T02:05:04.130Z,0.00
2023-05-10T02:06:04.119Z,0.00
2023-05-10T02:07:04.120Z,0.00
2023-05-10T02:08:04.124Z,0.00
2023-05-10T02:09:04.126Z,0.00
2023-05-10T02:10:04.139Z,0.00
2023-05-10T02:11:04.130Z,0.00
2023-05-10T02:12:04.121Z,0.00
2023-05-10T02:13:04.211Z,0.00
2023-05-10T02:14:04.117Z,0.00
2023-05-10T02:15:04.116Z,0.00
2023-05-10T02:16:04.112Z,0.00
2023-05-10T02:17:04.187Z,0.00
2023-05-10T02:18:04.129Z,0.00
2023-05-10T02:19:04.118Z,0.00
2023-05-10T02:20:04.113Z,0.00
2023-05-10T02:21:04.122Z,0.00
2023-05-10T02:22:04.158Z,0.00
2023-05-10T02:23:04.136Z,0.00
2023-05-10T02:24:04.128Z,0.00
2023-05-10T02:25:04.107Z,0.00
2023-05-10T02:26:04.251Z,0.00
2023-05-10T02:27:04.113Z,0.00
2023-05-10T02:28:04.107Z,0.00
2023-05-10T02:29:04.124Z,0.00
2023-05-10T02:30:04.104Z,0.00
2023-05-10T02:31:04.107Z,0.00
2023-05-10T02:32:04.155Z,0.00
2023-05-10T02:33:04.205Z,0.00
2023-05-10T02:34:04.102Z,0.00
2023-05-10T02:35:04.097Z,0.00
2023-05-10T02:36:04.110Z,0.00
2023-05-10T02:37:04.105Z,0.00
2023-05-10T02:38:04.100Z,0.00
2023-05-10T02:39:04.108Z,0.00
2023-05-10T02:40:04.097Z,0.00
2023-05-10T02:41:04.093Z,0.00
2023-05-10T02:42:04.122Z,0.00
2023-05-10T02:43:04.095Z,0.00
2023-05-10T02:44:04.092Z,0.00
2023-05-10T02:45:04.099Z,0.00
2023-05-10T02:46:04.103Z,0.00
2023-05-10T02:47:04.092Z,0.00
2023-05-10T02:48:04.120Z,0.00
2023-05-10T02:49:04.106Z,0.00
2023-05-10T02:50:04.084Z,0.00
2023-05-10T02:51:04.084Z,0.00
2023-05-10T02:52:04.092Z,0.00
2023-05-10T02:53:04.144Z,0.00
2023-05-10T02:54:04.089Z,0.00
2023-05-10T02:55:04.104Z,0.00
2023-05-10T02:56:04.082Z,0.00
2023-05-10T02:57:04.084Z,0.00
2023-05-10T02:58:04.111Z,0.00
2023-05-10T02:59:04.075Z,0.00
2023-05-10T03:00:04.101Z,0.00
2023-05-10T03:01:04.089Z,0.00
2023-05-10T03:02:04.079Z,0.00
2023-05-10T03:03:04.124Z,0.00
2023-05-10T03:04:04.094Z,0.00
2023-05-10T03:05:04.131Z,0.00
2023-05-10T03:06:04.071Z,0.00
2023-05-10T03:07:04.077Z,0.00
2023-05-10T03:08:04.078Z,0.00
2023-05-10T03:09:04.069Z,0.00
2023-05-10T03:10:04.084Z,0.00
2023-05-10T03:11:04.065Z,0.00
2023-05-10T03:12:04.090Z,5.63
2023-05-10T03:13:04.088Z,5.63
2023-05-10T03:14:04.091Z,5.63
2023-05-10T03:15:04.069Z,5.63
2023-05-10T03:16:04.153Z,5.63
2023-05-10T03:17:04.070Z,5.63
2023-05-10T03:18:04.118Z,5.63
2023-05-10T03:19:04.056Z,5.63
2023-05-10T03:20:04.066Z,5.63
2023-05-10T03:21:04.086Z,5.63
2023-05-10T03:22:04.061Z,11.25
2023-05-10T03:23:04.061Z,11.25
2023-05-10T03:24:04.064Z,11.25
2023-05-10T03:25:04.059Z,11.25
2023-05-10T03:26:04.056Z,11.25
2023-05-10T03:27:04.049Z,11.25
2023-05-10T03:28:04.062Z,11.25
2023-05-10T03:29:04.049Z,16.88
2023-05-10T03:30:04.132Z,16.88
2023-05-10T03:31:04.062Z,16.88
2023-05-10T03:32:04.048Z,16.88
2023-05-10T03:33:04.103Z,16.88
2023-05-10T03:34:04.051Z,16.88
2023-05-10T03:35:04.055Z,22.50
2023-05-10T03:36:04.045Z,22.50
2023-05-10T03:37:04.041Z,22.50
2023-05-10T03:38:04.046Z,22.50
2023-05-10T03:39:04.041Z,22.50
2023-05-10T03:40:04.043Z,22.50
2023-05-10T03:41:04.041Z,28.13
2023-05-10T03:42:04.042Z,28.13
2023-05-10T03:43:04.040Z,28.13
2023-05-10T03:44:04.039Z,28.13
2023-05-10T03:45:04.028Z,28.13
2023-05-10T03:46:04.079Z,33.75
2023-05-10T03:47:04.113Z,33.75
2023-05-10T03:48:04.080Z,33.75
2023-05-10T03:49:04.029Z,33.75
2023-05-10T03:50:04.031Z,33.75
2023-05-10T03:51:04.025Z,33.75
2023-05-10T03:52:04.028Z,39.38
2023-05-10T03:53:04.031Z,39.38
2023-05-10T03:54:04.022Z,39.38
2023-05-10T03:55:04.020Z,39.38
2023-05-10T03:56:04.052Z,39.38
2023-05-10T03:57:04.032Z,39.38
2023-05-10T03:58:04.017Z,39.38
2023-05-10T03:59:04.026Z,45.00
2023-05-10T04:00:04.034Z,45.00
2023-05-10T04:01:04.016Z,45.00
2023-05-10T04:02:04.139Z,45.00
2023-05-10T04:03:04.039Z,45.00
2023-05-10T04:04:04.048Z,45.00
2023-05-10T04:05:04.036Z,45.00
2023-05-10T04:06:04.062Z,50.63
2023-05-10T04:07:04.019Z,50.63
2023-05-10T04:08:04.012Z,50.63
2023-05-10T04:09:04.017Z,50.63
2023-05-10T04:10:04.012Z,50.63
2023-05-10T04:11:04.003Z,50.63
2023-05-10T04:12:04.026Z,50.63
2023-05-10T04:13:04.062Z,50.63
2023-05-10T04:14:04.009Z,56.25
2023-05-10T04:15:04.002Z,56.25
2023-05-10T04:16:04.009Z,56.25
2023-05-10T04:17:04.092Z,56.25
2023-05-10T04:18:04.789Z,56.25
2023-05-10T04:19:04.010Z,56.25
2023-05-10T04:20:04.007Z,56.25
2023-05-10T04:21:04.000Z,56.25
2023-05-10T04:22:03.998Z,61.88
2023-05-10T04:23:04.004Z,61.88
2023-05-10T04:24:03.997Z,61.88
2023-05-10T04:25:03.990Z,61.88
2023-05-10T04:26:03.985Z,61.88
2023-05-10T04:27:03.987Z,61.88
2023-05-10T04:28:04.011Z,61.88
2023-05-10T04:29:03.986Z,61.88
2023-05-10T04:30:03.997Z,67.50
2023-05-10T04:31:04.017Z,67.50
2023-05-10T04:32:03.991Z,67.50
2023-05-10T04:33:04.050Z,67.50
2023-05-10T04:34:04.031Z,67.50
2023-05-10T04:35:03.978Z,67.50
2023-05-10T04:36:03.985Z,67.50
2023-05-10T04:37:03.977Z,67.50
2023-05-10T04:38:03.987Z,73.13
2023-05-10T04:39:03.976Z,73.13
2023-05-10T04:40:03.973Z,73.13
2023-05-10T04:41:03.973Z,73.13
2023-05-10T04:42:03.997Z,73.13
2023-05-10T04:43:03.974Z,73.13
2023-05-10T04:44:03.972Z,73.13
2023-05-10T04:45:03.982Z,73.13
2023-05-10T04:46:04.083Z,73.13
2023-05-10T04:47:03.968Z,73.13
2023-05-10T04:48:04.027Z,78.75
2023-05-10T04:49:03.964Z,78.75
2023-05-10T04:50:03.991Z,78.75
2023-05-10T04:51:03.966Z,78.75
2023-05-10T04:52:03.965Z,78.75
2023-05-10T04:53:03.967Z,78.75
2023-05-10T04:54:06.621Z,78.75
2023-05-10T04:55:03.964Z,78.75
2023-05-10T04:56:03.964Z,78.75
2023-05-10T04:57:03.957Z,84.38
2023-05-10T04:58:03.962Z,84.38
2023-05-10T04:59:03.954Z,84.38
2023-05-10T05:00:03.981Z,84.38
2023-05-10T05:01:03.959Z,84.38
2023-05-10T05:02:04.003Z,84.38
2023-05-10T05:03:04.085Z,84.38
2023-05-10T05:04:03.953Z,84.38
2023-05-10T05:05:03.949Z,90.00
2023-05-10T05:06:03.977Z,90.00
2023-05-10T05:07:03.949Z,90.00
2023-05-10T05:08:03.952Z,90.00
2023-05-10T05:09:03.944Z,90.00
2023-05-10T05:10:03.951Z,90.00
2023-05-10T05:11:03.958Z,90.00
2023-05-10T05:12:03.950Z,90.00
2023-05-10T05:13:03.967Z,90.00
2023-05-10T05:14:03.947Z,95.63
2023-05-10T05:15:03.939Z,95.63
2023-05-10T05:16:03.998Z,95.63
2023-05-10T05:17:03.937Z,95.63
2023-05-10T05:18:03.961Z,95.63
2023-05-10T05:19:03.940Z,95.63
2023-05-10T05:20:03.942Z,95.63
2023-05-10T05:21:03.939Z,95.63
2023-05-10T05:22:03.976Z,95.63
2023-05-10T05:23:03.948Z,101.25
2023-05-10T05:24:03.948Z,101.25
2023-05-10T05:25:03.934Z,101.25
2023-05-10T05:26:03.943Z,101.25
2023-05-10T05:27:03.930Z,101.25
2023-05-10T05:28:03.932Z,101.25
2023-05-10T05:29:03.951Z,101.25
2023-05-10T05:30:03.935Z,106.88
2023-05-10T05:31:03.929Z,106.88
2023-05-10T05:32:04.015Z,106.88
2023-05-10T05:33:03.947Z,106.88
2023-05-10T05:34:03.934Z,106.88
2023-05-10T05:35:03.925Z,106.88
2023-05-10T05:36:03.943Z,112.50
2023-05-10T05:37:03.920Z,112.50
2023-05-10T05:38:03.954Z,112.50
2023-05-10T05:39:03.922Z,112.50
2023-05-10T05:40:03.921Z,112.50
2023-05-10T05:41:03.920Z,112.50
2023-05-10T05:42:03.934Z,118.13
2023-05-10T05:43:03.924Z,118.13
2023-05-10T05:44:03.921Z,118.13
2023-05-10T05:45:03.917Z,118.13
2023-05-10T05:46:03.980Z,118.13
2023-05-10T05:47:03.921Z,118.13
2023-05-10T05:48:04.013Z,123.75
2023-05-10T05:49:03.919Z,123.75
2023-05-10T05:50:03.929Z,123.75
2023-05-10T05:51:05.852Z,123.75
2023-05-10T05:52:03.921Z,123.75
2023-05-10T05:53:03.912Z,123.75
2023-05-10T05:54:03.956Z,123.75
2023-05-10T05:55:03.916Z,123.75
2023-05-10T05:56:03.915Z,129.38
2023-05-10T05:57:03.916Z,129.38
2023-05-10T05:58:03.939Z,129.38
2023-05-10T05:59:03.915Z,129.38
2023-05-10T06:00:03.919Z,129.38
2023-05-10T06:01:03.931Z,129.38
2023-05-10T06:02:03.954Z,129.38
2023-05-10T06:03:03.967Z,135.00
2023-05-10T06:04:04.016Z,135.00
2023-05-10T06:05:03.912Z,135.00
2023-05-10T06:06:03.914Z,135.00
2023-05-10T06:07:03.918Z,135.00
2023-05-10T06:08:03.911Z,135.00
2023-05-10T06:09:03.921Z,140.63
2023-05-10T06:10:03.957Z,140.63
2023-05-10T06:11:03.914Z,140.63
2023-05-10T06:12:03.924Z,140.63
2023-05-10T06:13:04.009Z,140.63
2023-05-10T06:14:03.917Z,140.63
2023-05-10T06:15:03.924Z,146.25
2023-05-10T06:16:03.912Z,146.25
2023-05-10T06:17:03.975Z,146.25
2023-05-10T06:18:04.000Z,146.25
2023-05-10T06:19:03.913Z,146.25
2023-05-10T06:20:03.916Z,151.88
2023-05-10T06:21:03.914Z,151.88
2023-05-10T06:22:03.912Z,151.88
2023-05-10T06:23:03.921Z,151.88
2023-05-10T06:24:03.945Z,151.88
2023-05-10T06:25:03.917Z,151.88
2023-05-10T06:26:03.934Z,151.88
2023-05-10T06:27:03.905Z,151.88
2023-05-10T06:28:03.946Z,157.50
2023-05-10T06:29:03.906Z,157.50
2023-05-10T06:30:12.442Z,157.50
2023-05-10T06:31:03.912Z,157.50
2023-05-10T06:32:03.910Z,163.13
2023-05-10T06:33:03.967Z,163.13
2023-05-10T06:34:03.915Z,163.13
2023-05-10T06:35:03.909Z,163.13
2023-05-10T06:36:03.923Z,168.75
2023-05-10T06:37:03.929Z,168.75
2023-05-10T06:38:03.913Z,168.75
2023-05-10T06:39:03.914Z,168.75
2023-05-10T06:40:03.910Z,168.75
2023-05-10T06:41:03.909Z,174.38
2023-05-10T06:42:04.004Z,174.38
2023-05-10T06:43:03.915Z,174.38
2023-05-10T06:44:03.926Z,180.00
2023-05-10T06:45:03.914Z,180.00
2023-05-10T06:46:03.958Z,180.00
2023-05-10T06:47:03.915Z,180.00
2023-05-10T06:48:03.946Z,185.63
2023-05-10T06:49:03.912Z,185.63
2023-05-10T06:50:03.928Z,185.63
2023-05-10T06:51:03.919Z,191.25
2023-05-10T06:52:03.916Z,191.25
2023-05-10T06:53:03.921Z,191.25
2023-05-10T06:54:03.926Z,191.25
2023-05-10T06:55:03.915Z,196.88
2023-05-10T06:56:04.519Z,196.88
2023-05-10T06:57:05.807Z,196.88
2023-05-10T06:58:03.993Z,202.50
2023-05-10T06:59:03.954Z,202.50
2023-05-10T07:00:03.972Z,208.13
2023-05-10T07:01:04.027Z,202.50
2023-05-10T07:02:03.979Z,208.13
2023-05-10T07:03:04.023Z,208.13
2023-05-10T07:04:03.919Z,208.13
2023-05-10T07:05:03.920Z,213.75
2023-05-10T07:06:03.928Z,213.75
2023-05-10T07:07:03.923Z,219.38
2023-05-10T07:08:03.947Z,219.38
2023-05-10T07:09:03.928Z,219.38
2023-05-10T07:10:03.929Z,219.38
2023-05-10T07:11:03.926Z,219.38
2023-05-10T07:12:03.966Z,225.00
2023-05-10T07:13:04.013Z,230.63
2023-05-10T07:14:03.942Z,230.63
2023-05-10T07:15:03.930Z,230.63
2023-05-10T07:16:03.950Z,236.25
2023-05-10T07:17:03.972Z,236.25
2023-05-10T07:18:04.111Z,241.88
2023-05-10T07:19:03.931Z,241.88
2023-05-10T07:20:03.936Z,247.50
2023-05-10T07:21:03.963Z,253.13
2023-05-10T07:22:03.958Z,253.13
2023-05-10T07:23:03.930Z,258.75
2023-05-10T07:24:03.938Z,264.38
2023-05-10T07:25:03.934Z,264.38
2023-05-10T07:26:03.933Z,270.00
2023-05-10T07:27:03.945Z,275.63
2023-05-10T07:28:03.952Z,281.25
2023-05-10T07:29:03.936Z,281.25
2023-05-10T07:30:03.957Z,286.88
2023-05-10T07:31:03.976Z,286.88
2023-05-10T07:32:03.977Z,292.50
2023-05-10T07:33:03.985Z,298.13
2023-05-10T07:34:03.943Z,303.75
2023-05-10T07:35:03.936Z,416.25
2023-05-10T07:36:03.941Z,1046.25
2023-05-10T07:37:03.952Z,2019.38
2023-05-10T07:38:03.979Z,2694.38
2023-05-10T07:39:03.942Z,2705.63
2023-05-10T07:40:03.961Z,2790.00
2023-05-10T07:41:03.950Z,2964.38
2023-05-10T07:42:03.952Z,3009.38
2023-05-10T07:43:03.955Z,2913.75
2023-05-10T07:44:03.948Z,2863.13
2023-05-10T07:45:03.996Z,2902.50
2023-05-10T07:46:04.012Z,2970.00
2023-05-10T07:47:03.959Z,2986.88
2023-05-10T07:48:03.977Z,3116.25
2023-05-10T07:49:04.003Z,3296.25
2023-05-10T07:50:03.989Z,3493.13
2023-05-10T07:51:03.965Z,3526.88
2023-05-10T07:52:03.970Z,3380.63
2023-05-10T07:53:03.998Z,3436.88
2023-05-10T07:54:03.991Z,3571.88
2023-05-10T07:55:03.972Z,3639.38
2023-05-10T07:56:03.977Z,3611.25
2023-05-10T07:57:03.999Z,3560.63
2023-05-10T07:58:03.986Z,3661.88
2023-05-10T07:59:03.986Z,3886.88
2023-05-10T08:00:03.998Z,3999.38
2023-05-10T08:01:03.999Z,3836.25
2023-05-10T08:02:04.096Z,3622.50
2023-05-10T08:03:04.179Z,3791.25
2023-05-10T08:04:04.132Z,3993.75
2023-05-10T08:05:04.034Z,3965.63
2023-05-10T08:06:04.016Z,4044.38
2023-05-10T08:07:04.032Z,4106.25
2023-05-10T08:08:04.025Z,4050.00
2023-05-10T08:09:04.044Z,3870.00
2023-05-10T08:10:04.040Z,3639.38
2023-05-10T08:11:04.036Z,3684.38
2023-05-10T08:12:04.053Z,3841.88
2023-05-10T08:13:04.059Z,4095.00
2023-05-10T08:14:04.077Z,4224.38
2023-05-10T08:15:04.071Z,4190.63
2023-05-10T08:16:04.168Z,4072.50
2023-05-10T08:17:04.090Z,3960.00
2023-05-10T08:18:04.179Z,3965.63
2023-05-10T08:19:04.219Z,4033.13
2023-05-10T08:20:04.122Z,4100.63
2023-05-10T08:21:04.110Z,4111.88
2023-05-10T08:22:04.143Z,4100.63
2023-05-10T08:23:04.134Z,4123.13
2023-05-10T08:24:04.136Z,4016.25
2023-05-10T08:25:04.149Z,3830.63
2023-05-10T08:26:04.161Z,3639.38
2023-05-10T08:27:04.164Z,3465.00
2023-05-10T08:28:04.175Z,3487.50
2023-05-10T08:29:04.199Z,3684.38
2023-05-10T08:30:04.196Z,3976.88
2023-05-10T08:31:04.220Z,4252.50
2023-05-10T08:32:04.206Z,4466.25
2023-05-10T08:33:04.310Z,4455.00
2023-05-10T08:34:04.399Z,4477.50
2023-05-10T08:35:04.249Z,4387.50
2023-05-10T08:36:04.253Z,4185.00
2023-05-10T08:37:04.290Z,3920.63
2023-05-10T08:38:04.283Z,3825.00
2023-05-10T08:39:04.286Z,3920.63
2023-05-10T08:40:04.299Z,3920.63
2023-05-10T08:41:04.307Z,3853.13
2023-05-10T08:42:04.325Z,3836.25
2023-05-10T08:43:04.334Z,4106.25
2023-05-10T08:44:04.346Z,4455.00
2023-05-10T08:45:04.356Z,4691.25
2023-05-10T08:46:04.370Z,4843.13
2023-05-10T08:47:04.473Z,4848.75
2023-05-10T08:48:04.440Z,4719.38
2023-05-10T08:49:04.416Z,4623.75
2023-05-10T08:50:04.453Z,4601.25
2023-05-10T08:51:04.444Z,4736.25
2023-05-10T08:52:04.462Z,4961.25
2023-05-10T08:53:04.465Z,5113.13
2023-05-10T08:54:04.482Z,5113.13
2023-05-10T08:55:04.498Z,5051.25
2023-05-10T08:56:04.509Z,5079.38
2023-05-10T08:57:04.526Z,5085.00
2023-05-10T08:58:04.536Z,4989.38
2023-05-10T08:59:04.549Z,4966.88
2023-05-10T09:00:04.555Z,5040.00
2023-05-10T09:01:04.660Z,5197.50
2023-05-10T09:02:04.592Z,5175.00
2023-05-10T09:03:04.743Z,5051.25
2023-05-10T09:04:04.667Z,4871.25
2023-05-10T09:05:04.727Z,4674.38
2023-05-10T09:06:04.690Z,4629.38
2023-05-10T09:07:04.684Z,4826.25
2023-05-10T09:08:04.690Z,5051.25
2023-05-10T09:09:04.701Z,5197.50
2023-05-10T09:10:04.721Z,5231.25
2023-05-10T09:11:04.741Z,5236.88
2023-05-10T09:12:04.752Z,5253.75
2023-05-10T09:13:04.782Z,5191.88
2023-05-10T09:14:04.797Z,5197.50
2023-05-10T09:15:04.966Z,5259.38
2023-05-10T09:16:13.899Z,5310.00
2023-05-10T09:17:04.933Z,5208.75
2023-05-10T09:18:04.876Z,5006.25
2023-05-10T09:19:04.963Z,4972.50
2023-05-10T09:20:05.284Z,5101.88
2023-05-10T09:21:04.898Z,5220.00
2023-05-10T09:22:04.949Z,5338.13
2023-05-10T09:23:04.940Z,5416.88
2023-05-10T09:24:04.946Z,5529.38
2023-05-10T09:25:04.969Z,5608.13
2023-05-10T09:26:04.980Z,5625.00
2023-05-10T09:27:05.010Z,5551.88
2023-05-10T09:28:05.018Z,5377.50
2023-05-10T09:29:05.040Z,5276.25
2023-05-10T09:30:05.057Z,5293.13
2023-05-10T09:31:05.150Z,5371.88
2023-05-10T09:32:05.109Z,5388.75
2023-05-10T09:33:05.153Z,5461.88
2023-05-10T09:34:05.126Z,5501.25
2023-05-10T09:35:05.159Z,5529.38
2023-05-10T09:36:05.161Z,5546.25
2023-05-10T09:37:05.195Z,5563.13
2023-05-10T09:38:05.301Z,5596.88
2023-05-10T09:39:05.230Z,5692.50
2023-05-10T09:40:05.247Z,5799.38
2023-05-10T09:41:05.264Z,5737.50
2023-05-10T09:42:05.271Z,5698.13
2023-05-10T09:43:05.334Z,5748.75
2023-05-10T09:44:05.323Z,5923.13
2023-05-10T09:45:05.342Z,5968.13
2023-05-10T09:46:05.370Z,5889.38
2023-05-10T09:47:05.380Z,5878.13
2023-05-10T09:48:05.426Z,5934.38
2023-05-10T09:49:05.418Z,6063.75
2023-05-10T09:50:05.448Z,6176.25
2023-05-10T09:51:05.457Z,6181.88
2023-05-10T09:52:05.475Z,6001.88
2023-05-10T09:53:05.504Z,5827.50
2023-05-10T09:54:05.545Z,5596.88
2023-05-10T09:55:05.540Z,5535.00
2023-05-10T09:56:05.563Z,5416.88
2023-05-10T09:57:05.583Z,5281.88
2023-05-10T09:58:05.596Z,5225.63
2023-05-10T09:59:05.617Z,5107.50
2023-05-10T10:00:05.641Z,5040.00
2023-05-10T10:01:05.682Z,5000.63
2023-05-10T10:02:05.946Z,5214.38
2023-05-10T10:03:05.844Z,5529.38
2023-05-10T10:04:05.721Z,5895.00
2023-05-10T10:05:05.814Z,5928.75
2023-05-10T10:06:06.809Z,5793.75
2023-05-10T10:07:05.802Z,5557.50
2023-05-10T10:08:05.822Z,5484.38
2023-05-10T10:09:05.843Z,5518.13
2023-05-10T10:10:05.880Z,5563.13
2023-05-10T10:11:05.893Z,5647.50
2023-05-10T10:12:05.899Z,5816.25
2023-05-10T10:13:05.932Z,5878.13
2023-05-10T10:14:05.972Z,5979.38
2023-05-10T10:15:05.957Z,6091.88
2023-05-10T10:16:05.993Z,6142.50
2023-05-10T10:17:08.744Z,6193.13
2023-05-10T10:18:06.069Z,6221.25
2023-05-10T10:19:06.085Z,6125.63
2023-05-10T10:20:06.091Z,6086.25
2023-05-10T10:21:06.174Z,5956.88
2023-05-10T10:22:06.112Z,5951.25
2023-05-10T10:23:06.128Z,6080.63
2023-05-10T10:24:06.159Z,6136.88
2023-05-10T10:25:06.180Z,6148.13
2023-05-10T10:26:06.212Z,5872.50
2023-05-10T10:27:06.216Z,5788.13
2023-05-10T10:28:06.250Z,5799.38
2023-05-10T10:29:06.273Z,5686.88
2023-05-10T10:30:06.275Z,5523.75
2023-05-10T10:31:06.329Z,5495.63
2023-05-10T10:32:06.325Z,5473.13
2023-05-10T10:33:13.579Z,5585.63
2023-05-10T10:34:06.368Z,5776.88
2023-05-10T10:35:06.397Z,6103.13
2023-05-10T10:36:06.409Z,6243.75
2023-05-10T10:37:06.446Z,6322.50
2023-05-10T10:38:06.458Z,6519.38
2023-05-10T10:39:06.491Z,6429.38
2023-05-10T10:40:06.502Z,6125.63
2023-05-10T10:41:06.537Z,5956.88
2023-05-10T10:42:06.587Z,5563.13
2023-05-10T10:43:06.570Z,5467.50
2023-05-10T10:44:06.591Z,5703.75
2023-05-10T10:45:06.623Z,6086.25
2023-05-10T10:46:06.640Z,6136.88
2023-05-10T10:47:06.732Z,6063.75
2023-05-10T10:48:06.692Z,5973.75
2023-05-10T10:49:06.708Z,6058.13
2023-05-10T10:50:06.733Z,6114.38
2023-05-10T10:51:06.756Z,6193.13
2023-05-10T10:52:06.778Z,6075.00
2023-05-10T10:53:06.839Z,5827.50
2023-05-10T10:54:06.824Z,5754.38
2023-05-10T10:55:06.846Z,5855.63
2023-05-10T10:56:06.870Z,5956.88
2023-05-10T10:57:06.890Z,6041.25
2023-05-10T10:58:06.944Z,6120.00
2023-05-10T10:59:06.944Z,6159.38
2023-05-10T11:00:06.958Z,6114.38
2023-05-10T11:01:07.017Z,6120.00
2023-05-10T11:02:07.010Z,5990.63
2023-05-10T11:03:07.104Z,5878.13
2023-05-10T11:04:07.107Z,6210.00
2023-05-10T11:05:07.089Z,6339.38
2023-05-10T11:06:07.109Z,6322.50
2023-05-10T11:07:07.130Z,6260.63
2023-05-10T11:08:07.160Z,6103.13
2023-05-10T11:09:07.206Z,6013.13
2023-05-10T11:10:07.207Z,6198.75
2023-05-10T11:11:07.239Z,6390.00
2023-05-10T11:12:07.252Z,6480.00
2023-05-10T11:13:07.288Z,6480.00
2023-05-10T11:14:07.379Z,6328.13
2023-05-10T11:15:07.342Z,6176.25
2023-05-10T11:16:07.523Z,6030.00
2023-05-10T11:17:07.532Z,5973.75
2023-05-10T11:18:07.477Z,5793.75
2023-05-10T11:19:07.547Z,5883.75
2023-05-10T11:20:07.456Z,5855.63
2023-05-10T11:21:07.486Z,5608.13
2023-05-10T11:22:07.506Z,5214.38
2023-05-10T11:23:07.533Z,5107.50
2023-05-10T11:24:07.562Z,5169.38
2023-05-10T11:25:07.587Z,5287.50
2023-05-10T11:26:07.616Z,5383.13
2023-05-10T11:27:07.638Z,5388.75
2023-05-10T11:28:07.657Z,5445.00
2023-05-10T11:29:07.685Z,5613.75
2023-05-10T11:30:07.734Z,5670.00
2023-05-10T11:31:07.799Z,5726.25
2023-05-10T11:32:07.756Z,5895.00
2023-05-10T11:33:07.830Z,6097.50
2023-05-10T11:34:07.814Z,6153.75
2023-05-10T11:35:07.837Z,6086.25
2023-05-10T11:36:07.865Z,6204.38
2023-05-10T11:37:07.882Z,6131.25
2023-05-10T11:38:07.913Z,5810.63
2023-05-10T11:39:07.939Z,5433.75
2023-05-10T11:40:07.979Z,4989.38
2023-05-10T11:41:07.993Z,4927.50
2023-05-10T11:42:08.015Z,5006.25
2023-05-10T11:43:08.042Z,5141.25
2023-05-10T11:44:08.064Z,5383.13
2023-05-10T11:45:08.102Z,5698.13
2023-05-10T11:46:08.259Z,5872.50
2023-05-10T11:47:08.140Z,5990.63
2023-05-10T11:48:08.245Z,5827.50
2023-05-10T11:49:08.192Z,5681.25
2023-05-10T11:50:08.225Z,5720.63
2023-05-10T11:51:08.248Z,5776.88
2023-05-10T11:52:08.290Z,5850.00
2023-05-10T11:53:08.296Z,5895.00
2023-05-10T11:54:08.330Z,6046.88
2023-05-10T11:55:08.352Z,5940.00
2023-05-10T11:56:08.378Z,5895.00
2023-05-10T11:57:08.409Z,5934.38
2023-05-10T11:58:08.428Z,5838.75
2023-05-10T11:59:08.452Z,5720.63
2023-05-10T12:00:08.481Z,5698.13
2023-05-10T12:01:08.522Z,5805.00
2023-05-10T12:02:08.559Z,5754.38
2023-05-10T12:03:08.704Z,5709.38
2023-05-10T12:04:08.812Z,5535.00
2023-05-10T12:05:08.625Z,5490.00
2023-05-10T12:06:08.645Z,5709.38
2023-05-10T12:07:08.681Z,6046.88
2023-05-10T12:08:08.689Z,6249.38
2023-05-10T12:09:08.729Z,6210.00
2023-05-10T12:10:08.756Z,6075.00
2023-05-10T12:11:08.766Z,5973.75
2023-05-10T12:12:08.796Z,5934.38
2023-05-10T12:13:08.820Z,5838.75
2023-05-10T12:14:08.848Z,5782.50
2023-05-10T12:15:08.874Z,5641.88
2023-05-10T12:16:08.939Z,5743.13
2023-05-10T12:17:08.926Z,5951.25
2023-05-10T12:18:09.006Z,6305.63
2023-05-10T12:19:09.142Z,6316.88
2023-05-10T12:20:09.014Z,6176.25
2023-05-10T12:21:09.041Z,5805.00
2023-05-10T12:22:09.061Z,5518.13
2023-05-10T12:23:09.097Z,5439.38
2023-05-10T12:24:09.152Z,5467.50
2023-05-10T12:25:09.134Z,5445.00
2023-05-10T12:26:09.172Z,5535.00
2023-05-10T12:27:09.306Z,5647.50
2023-05-10T12:28:09.220Z,5720.63
2023-05-10T12:29:09.246Z,5883.75
2023-05-10T12:30:09.281Z,5968.13
2023-05-10T12:31:09.295Z,5990.63
2023-05-10T12:32:09.454Z,5979.38
2023-05-10T12:33:09.441Z,6148.13
2023-05-10T12:34:09.420Z,5945.63
2023-05-10T12:35:09.406Z,5917.50